Estación meteorológica de Susqueda - Presa de (La Selva, Susqueda)

Consulta los datos en tiempo real de la estación meteorológica de Susqueda - Presa de





Hora UTC 07:15
Temperatura 14.1 ºC
Humedad 80.0 %
Presión 1015.3 hPa
Pluja 0.0 mm
Velocidad viento 0.0 km/h
Dirección viento WSW

Webcam

Datos diarios 2026-05-03



Hora UTC (invierno +1h; verano +2h)
Temperatura (ºC) Humedad (%) Presión (hPa) Velocidad viento (km/h) Precipitación (mm)
Hora UTC Aire Humedad Presión Vel. Dir. Vel. Max Dir. Intent. máx 5 min.
00:05 14.2 73.0 1017.4 0.0 W 0.0 0.0
00:10 14.2 73.0 1017.3 0.0 W 0.0 0.0
00:15 14.2 73.0 1017.4 0.0 W 0.0 0.0
00:20 14.2 73.0 1017.3 0.0 W 0.0 0.0
00:25 14.1 74.0 1017.2 0.0 WSW 0.0 0.0
00:30 14.1 74.0 1017.1 0.0 W 0.0 0.0
00:35 14.1 74.0 1017.1 0.0 WSW 0.0 0.0
00:40 14.1 75.0 1017.1 0.0 WSW 0.0 0.0
00:45 14.2 75.0 1017.0 0.0 WSW 0.0 0.0
00:50 14.2 75.0 1017.0 0.0 WSW 0.0 0.0
00:55 14.2 75.0 1016.9 0.0 WSW 0.0 0.0
01:00 14.3 74.0 1016.8 0.0 WSW 0.0 0.0
01:05 14.4 74.0 1016.7 0.0 WSW 0.0 0.0
01:10 14.5 74.0 1016.6 0.0 WSW 0.0 0.0
01:15 14.6 74.0 1016.5 0.0 WSW 0.0 0.0
01:20 14.5 74.0 1016.5 0.0 W 0.0 0.0
01:25 14.6 74.0 1016.5 0.0 W 0.0 0.0
01:30 14.7 74.0 1016.5 0.0 W 0.0 0.0
01:35 14.6 75.0 1016.4 0.0 W 0.0 0.0
01:40 14.4 75.0 1016.6 0.0 W 0.0 0.0
01:45 14.3 76.0 1016.5 0.0 W 0.0 0.0
01:50 14.3 76.0 1016.4 0.0 W 0.0 0.0
01:55 14.4 77.0 1016.3 0.0 W 0.0 0.0
02:00 14.5 77.0 1016.2 0.0 W 0.0 0.0
02:05 14.5 77.0 1016.1 0.0 W 0.0 0.0
02:10 14.6 78.0 1016.0 0.0 W 0.0 0.0
02:15 14.5 77.0 1015.9 0.0 W 0.0 0.0
02:20 14.4 78.0 1015.8 0.0 W 0.0 0.0
02:25 14.4 79.0 1015.8 0.0 W 0.0 0.0
02:30 14.4 78.0 1015.8 0.0 W 0.0 0.0
02:35 14.4 78.0 1015.8 0.0 W 0.0 0.0
02:40 14.4 78.0 1015.7 0.0 W 0.0 0.0
02:45 14.4 78.0 1015.7 0.0 W 0.0 0.0
02:50 14.3 78.0 1015.8 0.0 W 0.0 0.0
02:55 14.1 78.0 1015.7 0.0 W 0.0 0.0
03:00 14.1 78.0 1015.7 0.0 W 0.0 0.0
03:05 14.1 78.0 1015.8 0.0 WNW 3.2 0.0
03:10 14.1 79.0 1015.7 0.0 NW 3.2 0.0
03:15 14.1 78.0 1015.6 0.0 NW 0.0 0.0
03:20 14.0 79.0 1015.6 0.0 NW 0.0 0.0
03:25 14.0 80.0 1015.7 0.0 NW 0.0 0.0
03:30 13.9 80.0 1015.7 0.0 NW 0.0 0.0
03:35 13.9 80.0 1015.6 0.0 NW 0.0 0.0
03:40 13.9 80.0 1015.6 0.0 NW 0.0 0.0
03:45 13.9 80.0 1015.7 0.0 NW 0.0 0.0
03:50 14.0 81.0 1015.6 0.0 NW 0.0 0.0
03:55 14.1 80.0 1015.6 0.0 NW 0.0 0.0
04:00 14.2 80.0 1015.5 0.0 WNW 0.0 0.0
04:05 14.2 80.0 1015.5 0.0 W 0.0 0.0
04:10 14.2 80.0 1015.5 0.0 NNW 0.0 0.0
04:15 14.2 79.0 1015.5 0.0 W 0.0 0.0
04:20 14.3 78.0 1015.5 0.0 W 0.0 0.0
04:25 14.4 77.0 1015.5 0.0 W 0.0 0.0
04:30 14.4 79.0 1015.6 0.0 W 0.0 0.0
04:35 14.4 77.0 1015.5 0.0 W 0.0 0.0
04:40 14.4 77.0 1015.3 0.0 W 0.0 0.0
04:45 14.4 76.0 1015.3 0.0 WNW 0.0 0.0
04:50 14.5 76.0 1015.2 0.0 WNW 0.0 0.0
04:55 14.3 76.0 1015.3 0.0 NW 0.0 0.0
05:00 13.4 81.0 1015.3 0.0 NE 0.0 0.0
05:05 12.9 83.0 1015.3 0.0 NE 0.0 0.0
05:10 12.9 83.0 1015.4 0.0 NE 0.0 0.0
05:15 13.1 83.0 1015.5 0.0 NE 0.0 0.0
05:20 13.1 84.0 1015.6 0.0 NE 0.0 0.0
05:25 12.9 84.0 1015.7 0.0 NE 0.0 0.0
05:30 12.9 84.0 1015.5 0.0 NE 0.0 0.0
05:35 12.9 84.0 1015.4 0.0 NE 0.0 0.0
05:40 12.9 84.0 1015.4 0.0 NE 0.0 0.0
05:45 13.1 84.0 1015.4 0.0 SW 0.0 0.0
05:50 13.2 83.0 1015.3 0.0 WSW 1.6 0.0
05:55 13.4 81.0 1015.4 0.0 W 1.6 0.0
06:00 13.5 81.0 1015.4 0.0 W 0.0 0.0
06:05 13.4 81.0 1015.5 0.0 W 0.0 0.0
06:10 13.3 81.0 1015.4 0.0 W 0.0 0.0
06:15 13.2 82.0 1015.4 0.0 WSW 0.0 0.0
06:20 13.3 81.0 1015.4 0.0 WSW 0.0 0.0
06:25 13.3 81.0 1015.4 0.0 WNW 0.0 0.0
06:30 13.5 82.0 1015.4 0.0 W 0.0 0.0
06:35 13.5 81.0 1015.3 0.0 W 0.0 0.0
06:40 13.6 81.0 1015.4 0.0 W 0.0 0.0
06:45 13.6 81.0 1015.3 0.0 WNW 0.0 0.0
06:50 13.7 80.0 1015.3 0.0 W 0.0 0.0
06:55 13.9 82.0 1015.3 0.0 W 0.0 0.0
07:00 13.9 80.0 1015.3 0.0 WSW 0.0 0.0
07:05 13.9 80.0 1015.4 0.0 WSW 0.0 0.0
07:10 14.0 81.0 1015.3 0.0 WSW 0.0 0.0
07:15 14.1 80.0 1015.3 0.0 WSW 0.0 0.0
Máxima 14.7 84.0 1017.4 0.0 WSW 3.2 0.0
Mínima 12.9 73.0 1015.2
Total 0.0